sensor_id;sensor_type;location;lat;lon;timestamp;P1;durP1;ratioP1;P2;durP2;ratioP2
67185;SDS011;54116;53.518;49.398;2023-12-20T00:01:51;3.50;;;1.10;;
67185;SDS011;54116;53.518;49.398;2023-12-20T00:06:44;3.53;;;1.10;;
67185;SDS011;54116;53.518;49.398;2023-12-20T00:09:10;3.10;;;0.95;;
67185;SDS011;54116;53.518;49.398;2023-12-20T00:11:36;3.92;;;1.27;;
67185;SDS011;54116;53.518;49.398;2023-12-20T00:14:03;3.67;;;1.25;;
67185;SDS011;54116;53.518;49.398;2023-12-20T00:16:29;4.05;;;1.35;;
67185;SDS011;54116;53.518;49.398;2023-12-20T00:18:57;5.82;;;1.73;;
67185;SDS011;54116;53.518;49.398;2023-12-20T00:21:23;4.55;;;1.33;;
67185;SDS011;54116;53.518;49.398;2023-12-20T00:23:50;4.07;;;1.25;;
67185;SDS011;54116;53.518;49.398;2023-12-20T00:26:16;4.03;;;1.10;;
67185;SDS011;54116;53.518;49.398;2023-12-20T00:28:42;3.88;;;1.00;;
67185;SDS011;54116;53.518;49.398;2023-12-20T00:31:08;6.22;;;1.20;;
67185;SDS011;54116;53.518;49.398;2023-12-20T00:33:35;2.75;;;1.02;;
67185;SDS011;54116;53.518;49.398;2023-12-20T00:38:27;3.85;;;1.00;;
67185;SDS011;54116;53.518;49.398;2023-12-20T00:40:54;4.28;;;1.15;;
67185;SDS011;54116;53.518;49.398;2023-12-20T00:43:20;3.78;;;1.30;;
67185;SDS011;54116;53.518;49.398;2023-12-20T00:45:46;2.85;;;1.00;;
67185;SDS011;54116;53.518;49.398;2023-12-20T00:48:13;3.75;;;1.20;;
67185;SDS011;54116;53.518;49.398;2023-12-20T00:50:39;3.15;;;0.93;;
67185;SDS011;54116;53.518;49.398;2023-12-20T00:53:05;3.53;;;1.40;;
67185;SDS011;54116;53.518;49.398;2023-12-20T00:55:31;3.55;;;1.10;;
67185;SDS011;54116;53.518;49.398;2023-12-20T00:57:58;4.03;;;1.15;;
67185;SDS011;54116;53.518;49.398;2023-12-20T01:00:25;3.40;;;1.25;;
67185;SDS011;54116;53.518;49.398;2023-12-20T01:05:18;2.47;;;0.95;;
67185;SDS011;54116;53.518;49.398;2023-12-20T01:07:45;2.88;;;1.00;;
67185;SDS011;54116;53.518;49.398;2023-12-20T01:10:11;3.83;;;1.00;;
67185;SDS011;54116;53.518;49.398;2023-12-20T01:12:37;2.95;;;1.10;;
67185;SDS011;54116;53.518;49.398;2023-12-20T01:15:04;2.65;;;0.90;;
67185;SDS011;54116;53.518;49.398;2023-12-20T01:17:30;3.47;;;0.95;;
67185;SDS011;54116;53.518;49.398;2023-12-20T01:19:56;3.00;;;0.80;;
67185;SDS011;54116;53.518;49.398;2023-12-20T01:22:23;3.58;;;1.02;;
67185;SDS011;54116;53.518;49.398;2023-12-20T01:24:50;2.67;;;0.70;;
67185;SDS011;54116;53.518;49.398;2023-12-20T01:27:16;2.40;;;0.65;;
67185;SDS011;54116;53.518;49.398;2023-12-20T01:29:43;2.28;;;0.63;;
67185;SDS011;54116;53.518;49.398;2023-12-20T01:32:09;2.45;;;0.70;;
67185;SDS011;54116;53.518;49.398;2023-12-20T01:34:35;2.13;;;0.73;;
67185;SDS011;54116;53.518;49.398;2023-12-20T01:37:01;2.17;;;0.82;;
67185;SDS011;54116;53.518;49.398;2023-12-20T01:39:28;2.97;;;0.98;;
67185;SDS011;54116;53.518;49.398;2023-12-20T01:41:54;2.63;;;0.80;;
67185;SDS011;54116;53.518;49.398;2023-12-20T01:44:20;2.58;;;0.70;;
67185;SDS011;54116;53.518;49.398;2023-12-20T01:46:46;1.35;;;0.50;;
67185;SDS011;54116;53.518;49.398;2023-12-20T01:49:13;1.92;;;0.80;;
67185;SDS011;54116;53.518;49.398;2023-12-20T01:54:06;2.05;;;0.60;;
67185;SDS011;54116;53.518;49.398;2023-12-20T01:58:58;2.15;;;0.65;;
67185;SDS011;54116;53.518;49.398;2023-12-20T02:01:25;3.58;;;1.00;;
67185;SDS011;54116;53.518;49.398;2023-12-20T02:03:53;2.28;;;0.77;;
67185;SDS011;54116;53.518;49.398;2023-12-20T02:06:22;2.85;;;0.85;;
67185;SDS011;54116;53.518;49.398;2023-12-20T02:08:50;2.17;;;0.70;;
67185;SDS011;54116;53.518;49.398;2023-12-20T02:11:16;2.63;;;0.90;;
67185;SDS011;54116;53.518;49.398;2023-12-20T02:13:42;2.95;;;1.00;;
67185;SDS011;54116;53.518;49.398;2023-12-20T02:16:08;2.53;;;0.73;;
67185;SDS011;54116;53.518;49.398;2023-12-20T02:18:34;2.08;;;0.77;;
67185;SDS011;54116;53.518;49.398;2023-12-20T02:21:00;3.28;;;0.65;;
67185;SDS011;54116;53.518;49.398;2023-12-20T02:23:26;2.03;;;0.50;;
67185;SDS011;54116;53.518;49.398;2023-12-20T02:25:52;2.40;;;0.70;;
67185;SDS011;54116;53.518;49.398;2023-12-20T02:28:18;2.33;;;0.60;;
67185;SDS011;54116;53.518;49.398;2023-12-20T02:30:45;2.90;;;0.70;;
67185;SDS011;54116;53.518;49.398;2023-12-20T02:35:38;0.85;;;0.38;;
67185;SDS011;54116;53.518;49.398;2023-12-20T02:38:04;1.40;;;0.50;;
67185;SDS011;54116;53.518;49.398;2023-12-20T02:40:30;1.63;;;0.40;;
67185;SDS011;54116;53.518;49.398;2023-12-20T02:42:57;1.27;;;0.50;;
67185;SDS011;54116;53.518;49.398;2023-12-20T02:45:23;1.50;;;0.50;;
67185;SDS011;54116;53.518;49.398;2023-12-20T02:47:51;1.83;;;0.40;;
67185;SDS011;54116;53.518;49.398;2023-12-20T02:50:17;1.45;;;0.60;;
67185;SDS011;54116;53.518;49.398;2023-12-20T02:52:47;1.45;;;0.50;;
67185;SDS011;54116;53.518;49.398;2023-12-20T02:55:13;1.25;;;0.50;;
67185;SDS011;54116;53.518;49.398;2023-12-20T02:57:40;2.00;;;0.50;;
67185;SDS011;54116;53.518;49.398;2023-12-20T03:00:08;1.50;;;0.50;;
67185;SDS011;54116;53.518;49.398;2023-12-20T03:02:36;2.30;;;0.70;;
67185;SDS011;54116;53.518;49.398;2023-12-20T03:05:02;1.45;;;0.47;;
67185;SDS011;54116;53.518;49.398;2023-12-20T03:07:29;1.13;;;0.40;;
67185;SDS011;54116;53.518;49.398;2023-12-20T03:09:55;1.88;;;0.70;;
67185;SDS011;54116;53.518;49.398;2023-12-20T03:12:22;1.52;;;0.60;;
67185;SDS011;54116;53.518;49.398;2023-12-20T03:14:48;1.83;;;0.50;;
67185;SDS011;54116;53.518;49.398;2023-12-20T03:17:15;1.40;;;0.50;;
67185;SDS011;54116;53.518;49.398;2023-12-20T03:19:41;0.90;;;0.32;;
67185;SDS011;54116;53.518;49.398;2023-12-20T03:22:08;1.95;;;0.68;;
67185;SDS011;54116;53.518;49.398;2023-12-20T03:24:34;1.02;;;0.50;;
67185;SDS011;54116;53.518;49.398;2023-12-20T03:29:27;1.13;;;0.47;;
67185;SDS011;54116;53.518;49.398;2023-12-20T03:31:53;1.10;;;0.50;;
67185;SDS011;54116;53.518;49.398;2023-12-20T03:34:19;1.38;;;0.57;;
67185;SDS011;54116;53.518;49.398;2023-12-20T03:36:45;1.42;;;0.52;;
67185;SDS011;54116;53.518;49.398;2023-12-20T03:39:13;1.35;;;0.60;;
67185;SDS011;54116;53.518;49.398;2023-12-20T03:41:39;1.70;;;0.50;;
67185;SDS011;54116;53.518;49.398;2023-12-20T03:44:05;0.73;;;0.32;;
67185;SDS011;54116;53.518;49.398;2023-12-20T03:46:32;1.73;;;0.55;;
67185;SDS011;54116;53.518;49.398;2023-12-20T03:48:58;2.80;;;0.55;;
67185;SDS011;54116;53.518;49.398;2023-12-20T03:51:24;1.63;;;0.57;;
67185;SDS011;54116;53.518;49.398;2023-12-20T03:53:51;1.95;;;0.60;;
67185;SDS011;54116;53.518;49.398;2023-12-20T03:56:17;1.73;;;0.60;;
67185;SDS011;54116;53.518;49.398;2023-12-20T03:58:43;2.10;;;0.70;;
67185;SDS011;54116;53.518;49.398;2023-12-20T04:01:09;2.05;;;0.73;;
67185;SDS011;54116;53.518;49.398;2023-12-20T04:03:39;2.10;;;0.77;;
67185;SDS011;54116;53.518;49.398;2023-12-20T04:06:05;1.95;;;0.70;;
67185;SDS011;54116;53.518;49.398;2023-12-20T04:08:33;2.00;;;0.80;;
67185;SDS011;54116;53.518;49.398;2023-12-20T04:10:59;2.08;;;0.60;;
67185;SDS011;54116;53.518;49.398;2023-12-20T04:13:25;2.00;;;0.57;;
67185;SDS011;54116;53.518;49.398;2023-12-20T04:15:52;1.30;;;0.70;;
67185;SDS011;54116;53.518;49.398;2023-12-20T04:18:18;2.30;;;0.85;;
67185;SDS011;54116;53.518;49.398;2023-12-20T04:20:44;1.77;;;0.60;;
67185;SDS011;54116;53.518;49.398;2023-12-20T04:23:11;2.35;;;0.63;;
67185;SDS011;54116;53.518;49.398;2023-12-20T04:25:45;2.28;;;0.60;;
67185;SDS011;54116;53.518;49.398;2023-12-20T04:28:11;2.70;;;0.70;;
67185;SDS011;54116;53.518;49.398;2023-12-20T04:30:37;1.98;;;0.60;;
67185;SDS011;54116;53.518;49.398;2023-12-20T04:33:03;2.33;;;0.70;;
67185;SDS011;54116;53.518;49.398;2023-12-20T04:35:29;2.92;;;0.73;;
67185;SDS011;54116;53.518;49.398;2023-12-20T04:37:55;1.98;;;0.60;;
67185;SDS011;54116;53.518;49.398;2023-12-20T04:40:21;2.83;;;0.93;;
67185;SDS011;54116;53.518;49.398;2023-12-20T04:42:47;2.33;;;0.70;;
67185;SDS011;54116;53.518;49.398;2023-12-20T04:45:13;2.17;;;0.70;;
67185;SDS011;54116;53.518;49.398;2023-12-20T04:47:41;1.50;;;0.50;;
67185;SDS011;54116;53.518;49.398;2023-12-20T04:50:08;2.25;;;0.63;;
67185;SDS011;54116;53.518;49.398;2023-12-20T04:52:36;1.98;;;0.70;;
67185;SDS011;54116;53.518;49.398;2023-12-20T04:55:02;1.55;;;0.50;;
67185;SDS011;54116;53.518;49.398;2023-12-20T04:57:28;2.72;;;0.60;;
67185;SDS011;54116;53.518;49.398;2023-12-20T04:59:55;3.30;;;0.63;;
67185;SDS011;54116;53.518;49.398;2023-12-20T05:02:21;2.17;;;0.70;;
67185;SDS011;54116;53.518;49.398;2023-12-20T05:04:47;1.45;;;0.40;;
67185;SDS011;54116;53.518;49.398;2023-12-20T05:07:14;2.30;;;0.50;;
67185;SDS011;54116;53.518;49.398;2023-12-20T05:09:41;1.25;;;0.55;;
67185;SDS011;54116;53.518;49.398;2023-12-20T05:12:07;1.60;;;0.50;;
67185;SDS011;54116;53.518;49.398;2023-12-20T05:14:34;1.88;;;0.70;;
67185;SDS011;54116;53.518;49.398;2023-12-20T05:17:00;1.75;;;0.60;;
67185;SDS011;54116;53.518;49.398;2023-12-20T05:19:26;1.73;;;0.50;;
67185;SDS011;54116;53.518;49.398;2023-12-20T05:21:52;2.40;;;0.70;;
67185;SDS011;54116;53.518;49.398;2023-12-20T05:24:18;2.22;;;0.70;;
67185;SDS011;54116;53.518;49.398;2023-12-20T05:26:44;1.58;;;0.50;;
67185;SDS011;54116;53.518;49.398;2023-12-20T05:29:10;2.08;;;0.50;;
67185;SDS011;54116;53.518;49.398;2023-12-20T05:31:36;1.67;;;0.57;;
67185;SDS011;54116;53.518;49.398;2023-12-20T05:34:03;2.22;;;0.50;;
67185;SDS011;54116;53.518;49.398;2023-12-20T05:36:29;1.40;;;0.40;;
67185;SDS011;54116;53.518;49.398;2023-12-20T05:38:56;2.35;;;0.73;;
67185;SDS011;54116;53.518;49.398;2023-12-20T05:43:48;2.08;;;0.60;;
67185;SDS011;54116;53.518;49.398;2023-12-20T05:46:14;1.80;;;0.50;;
67185;SDS011;54116;53.518;49.398;2023-12-20T05:48:41;1.85;;;0.50;;
67185;SDS011;54116;53.518;49.398;2023-12-20T05:51:07;1.25;;;0.40;;
67185;SDS011;54116;53.518;49.398;2023-12-20T05:55:59;1.45;;;0.60;;
67185;SDS011;54116;53.518;49.398;2023-12-20T05:58:26;2.92;;;0.47;;
67185;SDS011;54116;53.518;49.398;2023-12-20T06:00:52;1.85;;;0.85;;
67185;SDS011;54116;53.518;49.398;2023-12-20T06:03:19;1.02;;;0.57;;
67185;SDS011;54116;53.518;49.398;2023-12-20T06:08:11;2.33;;;0.75;;
67185;SDS011;54116;53.518;49.398;2023-12-20T06:10:38;2.47;;;0.85;;
67185;SDS011;54116;53.518;49.398;2023-12-20T06:13:04;2.10;;;0.60;;
67185;SDS011;54116;53.518;49.398;2023-12-20T06:15:32;1.73;;;0.55;;
67185;SDS011;54116;53.518;49.398;2023-12-20T06:17:59;2.05;;;0.70;;
67185;SDS011;54116;53.518;49.398;2023-12-20T06:22:52;3.53;;;0.65;;
67185;SDS011;54116;53.518;49.398;2023-12-20T06:27:44;5.05;;;1.70;;
67185;SDS011;54116;53.518;49.398;2023-12-20T06:32:36;5.68;;;1.85;;
67185;SDS011;54116;53.518;49.398;2023-12-20T06:35:04;7.28;;;3.40;;
67185;SDS011;54116;53.518;49.398;2023-12-20T06:37:30;4.25;;;1.80;;
67185;SDS011;54116;53.518;49.398;2023-12-20T06:39:56;4.72;;;2.13;;
67185;SDS011;54116;53.518;49.398;2023-12-20T06:42:23;5.65;;;3.05;;
67185;SDS011;54116;53.518;49.398;2023-12-20T06:44:49;5.38;;;2.88;;
67185;SDS011;54116;53.518;49.398;2023-12-20T06:47:15;7.45;;;3.42;;
67185;SDS011;54116;53.518;49.398;2023-12-20T06:49:41;5.72;;;2.70;;
67185;SDS011;54116;53.518;49.398;2023-12-20T06:52:07;5.28;;;2.90;;
67185;SDS011;54116;53.518;49.398;2023-12-20T06:54:33;4.30;;;1.83;;
67185;SDS011;54116;53.518;49.398;2023-12-20T06:57:00;4.68;;;2.10;;
67185;SDS011;54116;53.518;49.398;2023-12-20T06:59:27;5.03;;;2.15;;
67185;SDS011;54116;53.518;49.398;2023-12-20T07:01:54;4.05;;;1.73;;
67185;SDS011;54116;53.518;49.398;2023-12-20T07:04:20;3.72;;;1.40;;
67185;SDS011;54116;53.518;49.398;2023-12-20T07:06:47;5.97;;;2.20;;
67185;SDS011;54116;53.518;49.398;2023-12-20T07:09:16;6.25;;;2.50;;
67185;SDS011;54116;53.518;49.398;2023-12-20T07:11:42;5.18;;;1.83;;
67185;SDS011;54116;53.518;49.398;2023-12-20T07:14:08;4.70;;;2.22;;
67185;SDS011;54116;53.518;49.398;2023-12-20T07:16:34;5.50;;;2.50;;
67185;SDS011;54116;53.518;49.398;2023-12-20T07:19:00;8.77;;;3.88;;
67185;SDS011;54116;53.518;49.398;2023-12-20T07:21:27;6.60;;;3.50;;
67185;SDS011;54116;53.518;49.398;2023-12-20T07:23:53;8.80;;;3.50;;
67185;SDS011;54116;53.518;49.398;2023-12-20T07:26:19;5.78;;;3.00;;
67185;SDS011;54116;53.518;49.398;2023-12-20T07:28:45;6.88;;;3.20;;
67185;SDS011;54116;53.518;49.398;2023-12-20T07:36:03;6.78;;;2.30;;
67185;SDS011;54116;53.518;49.398;2023-12-20T07:38:30;4.03;;;1.70;;
67185;SDS011;54116;53.518;49.398;2023-12-20T07:40:56;4.70;;;1.40;;
67185;SDS011;54116;53.518;49.398;2023-12-20T07:43:22;4.97;;;2.13;;
67185;SDS011;54116;53.518;49.398;2023-12-20T07:45:48;5.07;;;1.58;;
67185;SDS011;54116;53.518;49.398;2023-12-20T07:48:14;5.75;;;2.25;;
67185;SDS011;54116;53.518;49.398;2023-12-20T07:50:40;4.90;;;2.22;;
67185;SDS011;54116;53.518;49.398;2023-12-20T07:53:06;5.45;;;2.30;;
67185;SDS011;54116;53.518;49.398;2023-12-20T07:55:32;6.53;;;2.20;;
67185;SDS011;54116;53.518;49.398;2023-12-20T07:58:00;5.20;;;2.03;;
67185;SDS011;54116;53.518;49.398;2023-12-20T08:00:27;2.75;;;1.10;;
67185;SDS011;54116;53.518;49.398;2023-12-20T08:05:19;2.72;;;0.80;;
67185;SDS011;54116;53.518;49.398;2023-12-20T08:07:45;2.50;;;0.85;;
67185;SDS011;54116;53.518;49.398;2023-12-20T08:10:11;2.38;;;1.05;;
67185;SDS011;54116;53.518;49.398;2023-12-20T08:12:37;5.13;;;1.73;;
67185;SDS011;54116;53.518;49.398;2023-12-20T08:15:05;4.22;;;1.60;;
67185;SDS011;54116;53.518;49.398;2023-12-20T08:17:32;6.60;;;2.17;;
67185;SDS011;54116;53.518;49.398;2023-12-20T08:19:58;4.57;;;2.13;;
67185;SDS011;54116;53.518;49.398;2023-12-20T08:22:24;3.90;;;1.73;;
67185;SDS011;54116;53.518;49.398;2023-12-20T08:24:51;4.65;;;2.20;;
67185;SDS011;54116;53.518;49.398;2023-12-20T08:27:17;6.20;;;2.55;;
67185;SDS011;54116;53.518;49.398;2023-12-20T08:29:43;5.60;;;2.35;;
67185;SDS011;54116;53.518;49.398;2023-12-20T08:32:11;5.15;;;2.17;;
67185;SDS011;54116;53.518;49.398;2023-12-20T08:34:37;5.22;;;2.05;;
67185;SDS011;54116;53.518;49.398;2023-12-20T08:37:03;5.00;;;1.92;;
67185;SDS011;54116;53.518;49.398;2023-12-20T08:39:29;3.97;;;1.83;;
67185;SDS011;54116;53.518;49.398;2023-12-20T08:41:55;4.55;;;1.70;;
67185;SDS011;54116;53.518;49.398;2023-12-20T08:44:22;3.50;;;1.20;;
67185;SDS011;54116;53.518;49.398;2023-12-20T08:46:48;3.95;;;1.20;;
67185;SDS011;54116;53.518;49.398;2023-12-20T08:49:14;3.13;;;1.10;;
67185;SDS011;54116;53.518;49.398;2023-12-20T08:51:40;1.85;;;0.70;;
67185;SDS011;54116;53.518;49.398;2023-12-20T08:56:33;3.35;;;1.10;;
67185;SDS011;54116;53.518;49.398;2023-12-20T08:58:59;3.55;;;1.00;;
67185;SDS011;54116;53.518;49.398;2023-12-20T09:01:25;2.45;;;0.88;;
67185;SDS011;54116;53.518;49.398;2023-12-20T09:03:52;2.13;;;0.70;;
67185;SDS011;54116;53.518;49.398;2023-12-20T09:06:18;1.08;;;0.50;;
67185;SDS011;54116;53.518;49.398;2023-12-20T09:08:44;3.28;;;1.00;;
67185;SDS011;54116;53.518;49.398;2023-12-20T09:11:10;2.67;;;0.90;;
67185;SDS011;54116;53.518;49.398;2023-12-20T09:13:36;2.85;;;0.90;;
67185;SDS011;54116;53.518;49.398;2023-12-20T09:16:02;2.92;;;0.70;;
67185;SDS011;54116;53.518;49.398;2023-12-20T09:18:28;2.08;;;0.70;;
67185;SDS011;54116;53.518;49.398;2023-12-20T09:20:55;2.28;;;1.10;;
67185;SDS011;54116;53.518;49.398;2023-12-20T09:23:21;1.92;;;0.80;;
67185;SDS011;54116;53.518;49.398;2023-12-20T09:25:47;2.88;;;0.95;;
67185;SDS011;54116;53.518;49.398;2023-12-20T09:28:13;3.35;;;1.02;;
67185;SDS011;54116;53.518;49.398;2023-12-20T09:30:39;3.83;;;1.50;;
67185;SDS011;54116;53.518;49.398;2023-12-20T09:33:06;4.07;;;2.00;;
67185;SDS011;54116;53.518;49.398;2023-12-20T09:35:33;1.80;;;1.05;;
67185;SDS011;54116;53.518;49.398;2023-12-20T09:37:59;5.00;;;2.58;;
67185;SDS011;54116;53.518;49.398;2023-12-20T09:40:25;2.45;;;1.00;;
67185;SDS011;54116;53.518;49.398;2023-12-20T09:43:04;4.45;;;1.00;;
67185;SDS011;54116;53.518;49.398;2023-12-20T09:45:34;1.63;;;0.88;;
67185;SDS011;54116;53.518;49.398;2023-12-20T09:48:00;2.45;;;0.80;;
67185;SDS011;54116;53.518;49.398;2023-12-20T09:50:30;2.65;;;0.98;;
67185;SDS011;54116;53.518;49.398;2023-12-20T09:52:58;4.00;;;1.10;;
67185;SDS011;54116;53.518;49.398;2023-12-20T09:55:27;3.28;;;1.00;;
67185;SDS011;54116;53.518;49.398;2023-12-20T09:57:55;6.22;;;0.70;;
67185;SDS011;54116;53.518;49.398;2023-12-20T10:00:21;1.90;;;0.90;;
67185;SDS011;54116;53.518;49.398;2023-12-20T10:02:50;3.80;;;0.80;;
67185;SDS011;54116;53.518;49.398;2023-12-20T10:07:50;5.32;;;2.38;;
67185;SDS011;54116;53.518;49.398;2023-12-20T10:10:16;3.58;;;1.73;;
67185;SDS011;54116;53.518;49.398;2023-12-20T10:12:47;3.17;;;1.48;;
67185;SDS011;54116;53.518;49.398;2023-12-20T10:15:30;1.25;;;0.73;;
67185;SDS011;54116;53.518;49.398;2023-12-20T10:17:56;1.52;;;0.63;;
67185;SDS011;54116;53.518;49.398;2023-12-20T10:22:49;1.85;;;0.70;;
67185;SDS011;54116;53.518;49.398;2023-12-20T10:25:15;2.08;;;0.60;;
67185;SDS011;54116;53.518;49.398;2023-12-20T10:27:41;2.50;;;0.80;;
67185;SDS011;54116;53.518;49.398;2023-12-20T10:30:08;2.45;;;0.80;;
67185;SDS011;54116;53.518;49.398;2023-12-20T10:32:35;1.90;;;1.00;;
67185;SDS011;54116;53.518;49.398;2023-12-20T10:37:28;10.30;;;1.73;;
67185;SDS011;54116;53.518;49.398;2023-12-20T10:39:55;2.80;;;1.10;;
67185;SDS011;54116;53.518;49.398;2023-12-20T10:42:26;3.58;;;1.10;;
67185;SDS011;54116;53.518;49.398;2023-12-20T10:44:52;1.42;;;0.80;;
67185;SDS011;54116;53.518;49.398;2023-12-20T10:47:19;2.45;;;0.95;;
67185;SDS011;54116;53.518;49.398;2023-12-20T10:49:46;1.80;;;0.88;;
67185;SDS011;54116;53.518;49.398;2023-12-20T10:52:13;3.05;;;0.90;;
67185;SDS011;54116;53.518;49.398;2023-12-20T10:54:40;1.67;;;0.63;;
67185;SDS011;54116;53.518;49.398;2023-12-20T10:57:06;1.70;;;0.70;;
67185;SDS011;54116;53.518;49.398;2023-12-20T10:59:33;1.95;;;0.80;;
67185;SDS011;54116;53.518;49.398;2023-12-20T11:02:02;1.88;;;0.77;;
67185;SDS011;54116;53.518;49.398;2023-12-20T11:05:18;3.10;;;0.85;;
67185;SDS011;54116;53.518;49.398;2023-12-20T11:07:36;2.20;;;0.80;;
67185;SDS011;54116;53.518;49.398;2023-12-20T11:13:40;2.03;;;0.90;;
67185;SDS011;54116;53.518;49.398;2023-12-20T11:15:51;2.75;;;0.85;;
67185;SDS011;54116;53.518;49.398;2023-12-20T11:20:44;1.85;;;0.88;;
67185;SDS011;54116;53.518;49.398;2023-12-20T11:23:10;2.08;;;1.00;;
67185;SDS011;54116;53.518;49.398;2023-12-20T11:28:20;2.45;;;1.10;;
67185;SDS011;54116;53.518;49.398;2023-12-20T11:30:47;4.18;;;1.20;;
67185;SDS011;54116;53.518;49.398;2023-12-20T11:33:22;3.70;;;1.50;;
67185;SDS011;54116;53.518;49.398;2023-12-20T11:35:49;3.47;;;1.40;;
67185;SDS011;54116;53.518;49.398;2023-12-20T11:38:15;4.68;;;1.85;;
67185;SDS011;54116;53.518;49.398;2023-12-20T11:40:42;4.25;;;1.92;;
67185;SDS011;54116;53.518;49.398;2023-12-20T11:43:09;5.00;;;1.80;;
67185;SDS011;54116;53.518;49.398;2023-12-20T11:45:35;3.35;;;1.50;;
67185;SDS011;54116;53.518;49.398;2023-12-20T11:48:02;3.78;;;1.30;;
67185;SDS011;54116;53.518;49.398;2023-12-20T11:50:28;4.57;;;1.65;;
67185;SDS011;54116;53.518;49.398;2023-12-20T11:52:57;4.05;;;1.25;;
67185;SDS011;54116;53.518;49.398;2023-12-20T11:55:24;3.10;;;1.20;;
67185;SDS011;54116;53.518;49.398;2023-12-20T12:00:16;2.03;;;1.00;;
67185;SDS011;54116;53.518;49.398;2023-12-20T12:02:43;4.03;;;1.52;;
67185;SDS011;54116;53.518;49.398;2023-12-20T12:05:20;3.40;;;1.02;;
67185;SDS011;54116;53.518;49.398;2023-12-20T12:07:46;2.28;;;1.00;;
67185;SDS011;54116;53.518;49.398;2023-12-20T12:10:12;2.50;;;0.95;;
67185;SDS011;54116;53.518;49.398;2023-12-20T12:12:38;3.58;;;1.15;;
67185;SDS011;54116;53.518;49.398;2023-12-20T12:15:05;3.50;;;1.17;;
67185;SDS011;54116;53.518;49.398;2023-12-20T12:17:32;3.08;;;1.00;;
67185;SDS011;54116;53.518;49.398;2023-12-20T12:20:02;2.88;;;1.00;;
67185;SDS011;54116;53.518;49.398;2023-12-20T12:22:30;2.58;;;0.90;;
67185;SDS011;54116;53.518;49.398;2023-12-20T12:24:58;2.83;;;0.90;;
67185;SDS011;54116;53.518;49.398;2023-12-20T12:27:34;5.30;;;1.02;;
67185;SDS011;54116;53.518;49.398;2023-12-20T12:30:01;2.70;;;0.85;;
67185;SDS011;54116;53.518;49.398;2023-12-20T12:32:30;1.77;;;0.70;;
67185;SDS011;54116;53.518;49.398;2023-12-20T12:34:57;4.22;;;1.05;;
67185;SDS011;54116;53.518;49.398;2023-12-20T12:37:24;2.92;;;1.10;;
67185;SDS011;54116;53.518;49.398;2023-12-20T12:39:52;1.58;;;0.75;;
67185;SDS011;54116;53.518;49.398;2023-12-20T12:42:19;2.42;;;0.93;;
67185;SDS011;54116;53.518;49.398;2023-12-20T12:44:46;2.58;;;0.90;;
67185;SDS011;54116;53.518;49.398;2023-12-20T12:47:12;2.03;;;0.80;;
67185;SDS011;54116;53.518;49.398;2023-12-20T12:49:40;5.10;;;0.90;;
67185;SDS011;54116;53.518;49.398;2023-12-20T12:52:06;2.22;;;0.80;;
67185;SDS011;54116;53.518;49.398;2023-12-20T12:54:32;2.88;;;0.90;;
67185;SDS011;54116;53.518;49.398;2023-12-20T12:56:58;2.60;;;0.90;;
67185;SDS011;54116;53.518;49.398;2023-12-20T12:59:24;2.33;;;0.80;;
67185;SDS011;54116;53.518;49.398;2023-12-20T13:01:51;3.53;;;1.02;;
67185;SDS011;54116;53.518;49.398;2023-12-20T13:04:17;4.38;;;0.85;;
67185;SDS011;54116;53.518;49.398;2023-12-20T13:06:43;3.30;;;1.23;;
67185;SDS011;54116;53.518;49.398;2023-12-20T13:09:09;2.03;;;0.82;;
67185;SDS011;54116;53.518;49.398;2023-12-20T13:11:35;2.97;;;1.00;;
67185;SDS011;54116;53.518;49.398;2023-12-20T13:14:02;3.33;;;1.08;;
67185;SDS011;54116;53.518;49.398;2023-12-20T13:16:29;2.10;;;0.93;;
67185;SDS011;54116;53.518;49.398;2023-12-20T13:21:21;3.15;;;1.00;;
67185;SDS011;54116;53.518;49.398;2023-12-20T13:23:48;2.53;;;0.98;;
67185;SDS011;54116;53.518;49.398;2023-12-20T13:26:14;3.03;;;1.10;;
67185;SDS011;54116;53.518;49.398;2023-12-20T13:28:40;3.47;;;1.20;;
67185;SDS011;54116;53.518;49.398;2023-12-20T13:31:06;3.75;;;1.20;;
67185;SDS011;54116;53.518;49.398;2023-12-20T13:33:32;2.80;;;1.00;;
67185;SDS011;54116;53.518;49.398;2023-12-20T13:35:58;2.60;;;1.05;;
67185;SDS011;54116;53.518;49.398;2023-12-20T13:38:25;3.25;;;1.33;;
67185;SDS011;54116;53.518;49.398;2023-12-20T13:40:51;3.53;;;1.17;;
67185;SDS011;54116;53.518;49.398;2023-12-20T13:43:17;3.35;;;0.90;;
67185;SDS011;54116;53.518;49.398;2023-12-20T13:45:46;3.75;;;1.23;;
67185;SDS011;54116;53.518;49.398;2023-12-20T13:48:13;3.75;;;1.42;;
67185;SDS011;54116;53.518;49.398;2023-12-20T13:50:39;3.40;;;1.30;;
67185;SDS011;54116;53.518;49.398;2023-12-20T13:53:05;3.08;;;1.20;;
67185;SDS011;54116;53.518;49.398;2023-12-20T13:55:31;4.40;;;1.50;;
67185;SDS011;54116;53.518;49.398;2023-12-20T13:57:57;3.42;;;1.33;;
67185;SDS011;54116;53.518;49.398;2023-12-20T14:00:23;4.13;;;1.65;;
67185;SDS011;54116;53.518;49.398;2023-12-20T14:05:16;4.28;;;1.48;;
67185;SDS011;54116;53.518;49.398;2023-12-20T14:07:43;3.80;;;1.27;;
67185;SDS011;54116;53.518;49.398;2023-12-20T14:10:13;5.28;;;1.50;;
67185;SDS011;54116;53.518;49.398;2023-12-20T14:12:39;4.50;;;1.80;;
67185;SDS011;54116;53.518;49.398;2023-12-20T14:15:06;4.10;;;1.60;;
67185;SDS011;54116;53.518;49.398;2023-12-20T14:17:37;4.38;;;1.50;;
67185;SDS011;54116;53.518;49.398;2023-12-20T14:20:05;4.13;;;1.60;;
67185;SDS011;54116;53.518;49.398;2023-12-20T14:22:35;4.68;;;1.88;;
67185;SDS011;54116;53.518;49.398;2023-12-20T14:25:01;5.55;;;2.03;;
67185;SDS011;54116;53.518;49.398;2023-12-20T14:27:28;5.50;;;1.98;;
67185;SDS011;54116;53.518;49.398;2023-12-20T14:29:54;8.15;;;2.13;;
67185;SDS011;54116;53.518;49.398;2023-12-20T14:32:23;4.72;;;1.92;;
67185;SDS011;54116;53.518;49.398;2023-12-20T14:34:52;5.05;;;1.98;;
67185;SDS011;54116;53.518;49.398;2023-12-20T14:37:18;4.85;;;1.80;;
67185;SDS011;54116;53.518;49.398;2023-12-20T14:39:44;5.72;;;2.03;;
67185;SDS011;54116;53.518;49.398;2023-12-20T14:42:10;7.13;;;2.40;;
67185;SDS011;54116;53.518;49.398;2023-12-20T14:44:39;5.78;;;2.25;;
67185;SDS011;54116;53.518;49.398;2023-12-20T14:47:09;4.90;;;1.75;;
67185;SDS011;54116;53.518;49.398;2023-12-20T14:49:35;5.93;;;2.25;;
67185;SDS011;54116;53.518;49.398;2023-12-20T14:52:03;6.85;;;2.05;;
67185;SDS011;54116;53.518;49.398;2023-12-20T14:54:29;6.22;;;2.30;;
67185;SDS011;54116;53.518;49.398;2023-12-20T14:56:55;6.20;;;2.28;;
67185;SDS011;54116;53.518;49.398;2023-12-20T14:59:22;6.72;;;2.50;;
67185;SDS011;54116;53.518;49.398;2023-12-20T15:01:48;8.07;;;2.28;;
67185;SDS011;54116;53.518;49.398;2023-12-20T15:04:15;6.68;;;2.40;;
67185;SDS011;54116;53.518;49.398;2023-12-20T15:06:41;5.03;;;2.05;;
67185;SDS011;54116;53.518;49.398;2023-12-20T15:09:07;6.88;;;2.17;;
67185;SDS011;54116;53.518;49.398;2023-12-20T15:11:34;7.78;;;2.28;;
67185;SDS011;54116;53.518;49.398;2023-12-20T15:14:01;5.80;;;2.17;;
67185;SDS011;54116;53.518;49.398;2023-12-20T15:16:28;7.13;;;2.15;;
67185;SDS011;54116;53.518;49.398;2023-12-20T15:18:54;5.47;;;1.98;;
67185;SDS011;54116;53.518;49.398;2023-12-20T15:21:20;5.38;;;2.13;;
67185;SDS011;54116;53.518;49.398;2023-12-20T15:23:55;5.25;;;2.15;;
67185;SDS011;54116;53.518;49.398;2023-12-20T15:26:34;5.07;;;2.10;;
67185;SDS011;54116;53.518;49.398;2023-12-20T15:29:03;5.57;;;1.92;;
67185;SDS011;54116;53.518;49.398;2023-12-20T15:31:30;4.88;;;1.80;;
67185;SDS011;54116;53.518;49.398;2023-12-20T15:33:59;5.50;;;1.90;;
67185;SDS011;54116;53.518;49.398;2023-12-20T15:36:25;6.15;;;2.28;;